Time;durP1;ratioP1;P1;durP2;ratioP2;P2;SDS_P1;SDS_P2;PMS_P1;PMS_P2;Temp;Humidity;BMP_temperature;BMP_pressure;BME280_temperature;BME280_humidity;BME280_pressure;Samples;Min_cycle;Max_cycle;Signal;HPM_P1;HPM_P2
2022/10/21 00:00:26;;;;;;;1.92;1.40;;;9.70;61.70;;;;;;5031550;28;20033;-87
2022/10/21 00:02:52;;;;;;;1.48;1.38;;;9.70;61.80;;;;;;5012542;28;20396;-85
2022/10/21 00:05:18;;;;;;;1.73;1.58;;;9.70;61.90;;;;;;5031325;28;20124;-85
2022/10/21 00:07:44;;;;;;;1.55;1.30;;;9.70;61.80;;;;;;5027731;28;20441;-85
2022/10/21 00:10:10;;;;;;;1.42;1.20;;;9.60;61.80;;;;;;5029387;28;20033;-85
2022/10/21 00:12:36;;;;;;;2.88;1.88;;;9.70;61.90;;;;;;5011896;28;20136;-86
2022/10/21 00:15:05;;;;;;;3.58;1.60;;;9.70;61.90;;;;;;5027933;28;20038;-85
2022/10/21 00:17:33;;;;;;;3.17;1.90;;;9.70;62.00;;;;;;5029155;28;20084;-86
2022/10/21 00:19:58;;;;;;;2.22;2.00;;;9.60;61.90;;;;;;5025645;28;20037;-87
2022/10/21 00:22:24;;;;;;;2.08;1.88;;;9.60;62.00;;;;;;5012090;28;20029;-84
2022/10/21 00:24:50;;;;;;;3.20;2.10;;;9.70;62.10;;;;;;5027400;28;20116;-86
2022/10/21 00:27:16;;;;;;;2.15;1.95;;;9.60;62.10;;;;;;5028482;28;20077;-87
2022/10/21 00:29:43;;;;;;;2.20;2.05;;;9.60;62.20;;;;;;5028119;28;20567;-86
2022/10/21 00:32:09;;;;;;;2.58;2.20;;;9.60;62.30;;;;;;5030695;28;20124;-83
2022/10/21 00:34:34;;;;;;;2.53;2.17;;;9.60;62.30;;;;;;5001018;28;20097;-85
2022/10/21 00:37:00;;;;;;;2.35;2.15;;;9.60;62.40;;;;;;5036882;28;20034;-83
2022/10/21 00:39:26;;;;;;;2.67;2.47;;;9.60;62.40;;;;;;5027347;28;20203;-84
2022/10/21 00:41:52;;;;;;;5.88;2.80;;;9.60;62.50;;;;;;5026869;28;20100;-83
2022/10/21 00:44:18;;;;;;;3.58;2.58;;;9.60;62.50;;;;;;5011272;28;20034;-88
2022/10/21 00:46:58;;;;;;;3.88;2.63;;;9.60;62.60;;;;;;5029366;28;20018;-89
2022/10/21 00:49:40;;;;;;;3.05;2.45;;;9.60;62.80;;;;;;5007433;28;20060;-84
2022/10/21 00:52:20;;;;;;;2.92;2.45;;;9.60;62.70;;;;;;5027701;28;20582;-85
2022/10/21 00:54:48;;;;;;;3.10;2.78;;;9.60;62.70;;;;;;5028908;28;20029;-86
2022/10/21 00:57:14;;;;;;;3.90;2.95;;;9.60;62.70;;;;;;5022864;28;20033;-86
2022/10/21 00:59:45;;;;;;;3.95;3.08;;;9.60;62.70;;;;;;4997549;28;20061;-88
2022/10/21 01:02:11;;;;;;;3.95;3.13;;;9.60;62.90;;;;;;5064097;28;20499;-87
2022/10/21 01:04:37;;;;;;;4.35;3.20;;;9.60;62.90;;;;;;5021191;28;20072;-86
2022/10/21 01:07:04;;;;;;;4.00;3.42;;;9.50;62.90;;;;;;5027556;28;20084;-86
2022/10/21 01:09:30;;;;;;;3.78;2.97;;;9.50;63.00;;;;;;5010831;28;20488;-84
2022/10/21 01:11:56;;;;;;;3.58;2.85;;;9.60;63.10;;;;;;5011466;28;20091;-84
2022/10/21 01:14:40;;;;;;;3.78;2.90;;;9.60;63.20;;;;;;5027591;28;20037;-86
2022/10/21 01:17:30;;;;;;;4.63;3.22;;;9.50;63.20;;;;;;5010844;28;20036;-85
2022/10/21 01:20:21;;;;;;;4.38;3.17;;;9.50;63.20;;;;;;5006728;28;20851;-84
2022/10/21 01:23:04;;;;;;;3.17;2.75;;;9.50;63.30;;;;;;5027943;28;20025;-85
2022/10/21 01:25:48;;;;;;;3.65;3.03;;;9.50;63.30;;;;;;4994697;28;20021;-86
2022/10/21 01:28:38;;;;;;;4.00;3.15;;;9.50;63.40;;;;;;5026408;28;20052;-85
2022/10/21 01:31:07;;;;;;;3.13;2.83;;;9.50;63.40;;;;;;5043794;28;20037;-84
2022/10/21 01:33:40;;;;;;;3.25;2.70;;;9.50;63.40;;;;;;5027602;28;20033;-87
2022/10/21 01:36:23;;;;;;;4.07;2.85;;;9.50;63.50;;;;;;5010898;28;20033;-86
2022/10/21 01:39:01;;;;;;;3.40;2.85;;;9.50;63.50;;;;;;5028287;28;20144;-88
2022/10/21 01:41:36;;;;;;;3.03;2.58;;;9.50;63.60;;;;;;5027639;28;20087;-87
2022/10/21 01:44:53;;;;;;;3.77;2.73;;;9.50;63.60;;;;;;5026841;28;20120;-86
2022/10/21 01:47:24;;;;;;;6.63;2.60;;;9.50;63.70;;;;;;5005300;28;20346;-87
2022/10/21 01:49:56;;;;;;;2.75;2.53;;;9.50;63.80;;;;;;5026903;28;20033;-85
2022/10/21 01:52:23;;;;;;;3.78;2.40;;;9.40;63.90;;;;;;5009262;28;20464;-84
2022/10/21 01:55:02;;;;;;;3.58;2.20;;;9.50;64.10;;;;;;5017442;28;20029;-84
2022/10/21 01:57:36;;;;;;;3.13;2.10;;;9.40;64.10;;;;;;5020678;28;20128;-85
2022/10/21 02:00:03;;;;;;;1.83;1.70;;;9.40;64.30;;;;;;5050807;28;20038;-85
2022/10/21 02:02:33;;;;;;;1.80;1.70;;;9.40;64.40;;;;;;5032384;28;20442;-87
2022/10/21 02:05:04;;;;;;;3.00;2.25;;;9.50;64.60;;;;;;5027518;28;20038;-86
2022/10/21 02:07:30;;;;;;;1.90;1.80;;;9.40;64.60;;;;;;5024158;28;20481;-85
2022/10/21 02:09:56;;;;;;;2.33;2.00;;;9.50;64.70;;;;;;5026669;28;20065;-86
2022/10/21 02:12:24;;;;;;;3.42;2.22;;;9.40;64.70;;;;;;5042043;28;20038;-85
2022/10/21 02:14:52;;;;;;;2.47;1.80;;;9.50;64.80;;;;;;5025908;28;20033;-90
2022/10/21 02:17:21;;;;;;;2.08;1.90;;;9.40;64.80;;;;;;5025757;28;20061;-85
2022/10/21 02:19:47;;;;;;;2.08;1.98;;;9.50;64.90;;;;;;5009151;28;20037;-85
2022/10/21 02:22:19;;;;;;;2.00;1.80;;;9.40;65.00;;;;;;5009919;28;20029;-85
2022/10/21 02:24:52;;;;;;;2.13;1.83;;;9.50;65.10;;;;;;5007160;28;20029;-82
2022/10/21 02:27:19;;;;;;;3.13;1.63;;;9.50;65.20;;;;;;5020902;28;20562;-86
2022/10/21 02:29:47;;;;;;;2.28;1.73;;;9.50;65.20;;;;;;5025388;28;20531;-86
2022/10/21 02:32:34;;;;;;;2.17;2.00;;;9.40;65.20;;;;;;5026007;28;20120;-86
2022/10/21 02:35:20;;;;;;;3.78;1.77;;;9.40;65.30;;;;;;5026755;28;20041;-86
2022/10/21 02:37:55;;;;;;;2.17;1.95;;;9.40;65.30;;;;;;4992524;28;20036;-85
2022/10/21 02:40:39;;;;;;;2.50;1.70;;;9.40;65.30;;;;;;5022702;28;20459;-84
2022/10/21 02:43:42;;;;;;;2.67;2.08;;;9.40;65.40;;;;;;5027288;28;20076;-84
2022/10/21 02:46:11;;;;;;;2.60;2.03;;;9.40;65.40;;;;;;5022712;28;20398;-87
2022/10/21 02:48:39;;;;;;;1.73;1.60;;;9.40;65.40;;;;;;5026199;28;20041;-87
2022/10/21 02:51:06;;;;;;;1.65;1.55;;;9.40;65.40;;;;;;5025062;28;20034;-83
2022/10/21 02:53:33;;;;;;;1.83;1.70;;;9.40;65.50;;;;;;5027014;28;20488;-86
2022/10/21 02:55:59;;;;;;;1.73;1.63;;;9.40;65.50;;;;;;5026806;28;20504;-88
2022/10/21 02:58:25;;;;;;;2.03;1.85;;;9.40;65.60;;;;;;4993049;28;20479;-86
2022/10/21 03:00:51;;;;;;;1.75;1.65;;;9.40;65.70;;;;;;5026148;28;20189;-80
2022/10/21 03:03:17;;;;;;;2.20;1.60;;;9.40;65.70;;;;;;5022766;28;20038;-79
2022/10/21 03:05:43;;;;;;;1.75;1.60;;;9.40;65.70;;;;;;5025118;28;20542;-80
2022/10/21 03:08:09;;;;;;;1.70;1.60;;;9.40;65.80;;;;;;5045930;28;20127;-80
2022/10/21 03:10:35;;;;;;;2.85;1.85;;;9.40;65.90;;;;;;5028502;28;20120;-81
2022/10/21 03:13:01;;;;;;;2.38;1.80;;;9.40;65.90;;;;;;5011542;28;20037;-79
2022/10/21 03:15:27;;;;;;;2.35;1.73;;;9.40;65.90;;;;;;5027017;28;20443;-79
2022/10/21 03:17:53;;;;;;;2.67;2.17;;;9.40;66.00;;;;;;5027442;28;20056;-79
2022/10/21 03:20:19;;;;;;;2.35;2.05;;;9.40;66.10;;;;;;5027986;28;20033;-79
2022/10/21 03:22:45;;;;;;;2.97;1.98;;;9.40;66.10;;;;;;5047603;28;20694;-79
2022/10/21 03:25:11;;;;;;;1.80;1.70;;;9.40;66.20;;;;;;5039599;28;20048;-78
2022/10/21 03:27:37;;;;;;;1.90;1.65;;;9.40;66.20;;;;;;5031501;28;20502;-77
2022/10/21 03:30:07;;;;;;;2.08;1.80;;;9.40;66.30;;;;;;5048797;28;20043;-77
2022/10/21 03:32:33;;;;;;;3.28;1.88;;;9.40;66.40;;;;;;5049177;28;20037;-77
2022/10/21 03:34:59;;;;;;;1.85;1.75;;;9.40;66.40;;;;;;5030740;28;20120;-78
2022/10/21 03:37:25;;;;;;;2.20;2.00;;;9.40;66.40;;;;;;5047370;28;20076;-77
2022/10/21 03:39:51;;;;;;;1.98;1.80;;;9.40;66.50;;;;;;5046889;28;20029;-77
2022/10/21 03:42:17;;;;;;;1.95;1.67;;;9.40;66.50;;;;;;5048533;28;20459;-77
2022/10/21 03:44:43;;;;;;;2.20;2.00;;;9.40;66.60;;;;;;5014684;28;20025;-77
2022/10/21 03:47:09;;;;;;;2.08;1.88;;;9.30;66.50;;;;;;5047793;28;20613;-77
2022/10/21 03:49:34;;;;;;;2.03;1.92;;;9.40;66.60;;;;;;5048465;28;20045;-78
2022/10/21 03:52:00;;;;;;;2.53;1.92;;;9.40;66.60;;;;;;5049217;28;20797;-78
2022/10/21 03:54:26;;;;;;;2.33;2.00;;;9.40;66.70;;;;;;5047736;28;20037;-77
2022/10/21 03:56:52;;;;;;;2.00;1.80;;;9.40;66.70;;;;;;5029467;28;20112;-78
2022/10/21 03:59:18;;;;;;;3.13;2.30;;;9.40;66.80;;;;;;5029864;28;20037;-77
2022/10/21 04:01:44;;;;;;;3.13;1.75;;;9.30;66.70;;;;;;5047837;28;20131;-78
2022/10/21 04:04:10;;;;;;;2.15;1.95;;;9.40;66.80;;;;;;5027868;28;20029;-77
2022/10/21 04:06:36;;;;;;;2.53;2.33;;;9.40;66.90;;;;;;5047395;28;20048;-78
2022/10/21 04:09:02;;;;;;;3.10;2.17;;;9.30;66.90;;;;;;5029650;28;20527;-77
2022/10/21 04:11:28;;;;;;;3.78;2.22;;;9.40;67.00;;;;;;5047958;28;20033;-78
2022/10/21 04:13:54;;;;;;;2.05;1.85;;;9.40;67.00;;;;;;5029841;28;20037;-76
2022/10/21 04:16:21;;;;;;;3.03;1.85;;;9.40;67.00;;;;;;5028453;28;20424;-76
2022/10/21 04:18:47;;;;;;;2.80;2.15;;;9.40;67.00;;;;;;5047730;28;20045;-75
2022/10/21 04:21:14;;;;;;;3.38;2.22;;;9.30;67.00;;;;;;5046740;28;20040;-76
2022/10/21 04:23:40;;;;;;;2.63;2.13;;;9.40;67.10;;;;;;5029107;28;20041;-78
2022/10/21 04:26:06;;;;;;;2.38;2.17;;;9.40;67.10;;;;;;5046167;28;20060;-75
2022/10/21 04:28:32;;;;;;;2.08;1.88;;;9.40;67.10;;;;;;4996513;28;20059;-83
2022/10/21 04:30:58;;;;;;;2.00;1.77;;;9.40;67.20;;;;;;5045925;28;20561;-82
2022/10/21 04:33:25;;;;;;;3.08;1.80;;;9.40;67.10;;;;;;5046343;28;20058;-76
2022/10/21 04:35:53;;;;;;;3.60;2.10;;;9.40;67.20;;;;;;5047804;28;20037;-79
2022/10/21 04:38:20;;;;;;;2.25;1.45;;;9.40;67.30;;;;;;5048651;28;20103;-78
2022/10/21 04:40:46;;;;;;;2.85;1.65;;;9.50;74.70;;;;;;5031058;28;20037;-76
2022/10/21 04:43:12;;;;;;;4.70;1.80;;;9.60;71.90;;;;;;5048079;28;20478;-84
2022/10/21 04:45:39;;;;;;;3.78;1.98;;;9.60;70.80;;;;;;5030677;28;20110;-82
2022/10/21 04:48:06;;;;;;;3.42;1.80;;;9.70;69.90;;;;;;5048942;28;20929;-81
2022/10/21 04:50:33;;;;;;;3.92;2.05;;;9.70;69.10;;;;;;5049454;28;20535;-85
2022/10/21 04:52:59;;;;;;;4.13;1.70;;;9.70;68.60;;;;;;5021395;28;20029;-81
2022/10/21 04:55:25;;;;;;;2.00;1.80;;;9.70;68.30;;;;;;5015208;28;20060;-80
2022/10/21 04:57:51;;;;;;;5.63;1.70;;;9.70;68.00;;;;;;5048093;28;20041;-80
2022/10/21 05:00:17;;;;;;;2.65;1.90;;;9.70;67.80;;;;;;5040806;28;20055;-82
2022/10/21 05:02:43;;;;;;;2.47;2.00;;;9.70;67.70;;;;;;5012349;28;20572;-79
2022/10/21 05:05:09;;;;;;;2.55;1.92;;;9.70;67.60;;;;;;5027717;28;20033;-78
2022/10/21 05:07:35;;;;;;;2.75;2.55;;;9.60;67.50;;;;;;5047472;28;20460;-79
2022/10/21 05:10:01;;;;;;;2.72;2.10;;;9.70;67.50;;;;;;5029391;28;20673;-78
2022/10/21 05:12:27;;;;;;;3.63;2.30;;;9.60;67.50;;;;;;5047009;28;20052;-78
2022/10/21 05:14:53;;;;;;;3.67;2.42;;;9.60;67.50;;;;;;5011156;28;20424;-78
2022/10/21 05:17:18;;;;;;;4.35;2.20;;;9.60;67.50;;;;;;5029180;28;20045;-78
2022/10/21 05:19:44;;;;;;;3.10;2.33;;;9.60;67.60;;;;;;5047479;28;20081;-78
2022/10/21 05:22:11;;;;;;;5.78;2.53;;;9.60;67.50;;;;;;5029585;28;20128;-78
2022/10/21 05:24:37;;;;;;;3.65;2.38;;;9.60;67.50;;;;;;5026004;28;20033;-78
2022/10/21 05:27:03;;;;;;;5.53;2.47;;;9.60;67.50;;;;;;5046340;28;20044;-77
2022/10/21 05:29:29;;;;;;;3.17;2.60;;;9.60;67.50;;;;;;5024227;28;20037;-77
2022/10/21 05:31:55;;;;;;;3.13;2.60;;;9.60;67.60;;;;;;5045616;28;20036;-77
2022/10/21 05:34:21;;;;;;;3.83;2.45;;;9.60;67.50;;;;;;5029452;28;20028;-78
2022/10/21 05:36:47;;;;;;;3.40;2.70;;;9.60;67.60;;;;;;5009201;28;20418;-77
2022/10/21 05:39:14;;;;;;;3.00;2.67;;;9.60;67.60;;;;;;5010655;28;20037;-78
2022/10/21 05:41:40;;;;;;;3.65;2.42;;;9.60;67.60;;;;;;5046743;28;20036;-78
2022/10/21 05:44:06;;;;;;;4.57;2.55;;;9.60;67.70;;;;;;5046633;28;20041;-79
2022/10/21 05:46:32;;;;;;;3.35;2.38;;;9.60;67.80;;;;;;5027652;28;20041;-78
2022/10/21 05:48:58;;;;;;;3.65;2.72;;;9.60;67.80;;;;;;5046755;28;20029;-77
2022/10/21 05:51:25;;;;;;;4.35;2.60;;;9.70;68.50;;;;;;5048746;28;20032;-78
2022/10/21 05:53:56;;;;;;;4.45;2.65;;;9.70;67.90;;;;;;5047740;28;20036;-78
2022/10/21 05:56:22;;;;;;;5.03;3.10;;;9.70;67.90;;;;;;5026759;28;20051;-81
2022/10/21 05:58:48;;;;;;;5.00;2.45;;;9.70;67.90;;;;;;5028775;28;20037;-80
2022/10/21 06:01:14;;;;;;;2.83;2.53;;;9.70;67.90;;;;;;5047522;28;20060;-80
2022/10/21 06:03:40;;;;;;;5.55;2.90;;;9.70;68.00;;;;;;5011867;28;20151;-79
2022/10/21 06:06:08;;;;;;;3.60;2.30;;;9.70;68.00;;;;;;5025131;28;20057;-80
2022/10/21 06:08:37;;;;;;;3.13;2.20;;;9.70;67.90;;;;;;5026484;28;20034;-72
2022/10/21 06:11:10;;;;;;;5.03;2.22;;;9.80;82.10;;;;;;5025557;28;20037;-73
2022/10/21 06:13:36;;;;;;;3.35;1.95;;;10.40;85.80;;;;;;5025887;28;20037;-81
2022/10/21 06:16:03;;;;;;;4.20;2.20;;;10.60;83.30;;;;;;5008421;28;20432;-81
2022/10/21 06:18:29;;;;;;;5.55;2.63;;;10.70;78.40;;;;;;5024690;28;20132;-81
2022/10/21 06:20:55;;;;;;;6.63;3.03;;;10.80;75.60;;;;;;5003432;28;20484;-81
2022/10/21 06:23:21;;;;;;;4.10;3.13;;;10.70;73.40;;;;;;5033069;28;20065;-83
2022/10/21 06:26:09;;;;;;;3.47;2.85;;;10.70;71.90;;;;;;5002537;28;20033;-82
2022/10/21 06:28:37;;;;;;;4.15;2.70;;;10.70;71.00;;;;;;5008493;28;20188;-82
2022/10/21 06:31:04;;;;;;;3.92;2.80;;;10.70;70.10;;;;;;5008279;28;20045;-82
2022/10/21 06:33:29;;;;;;;4.60;2.97;;;10.60;69.60;;;;;;4991501;28;20123;-81
2022/10/21 06:35:56;;;;;;;4.35;3.00;;;10.60;69.30;;;;;;5024270;28;20084;-81
2022/10/21 06:38:24;;;;;;;4.43;3.00;;;10.60;69.20;;;;;;5026294;28;20045;-81
2022/10/21 06:40:52;;;;;;;4.82;3.20;;;10.50;69.20;;;;;;5022889;28;20579;-81
2022/10/21 06:43:18;;;;;;;3.30;3.00;;;10.50;69.20;;;;;;5025684;28;20083;-81
2022/10/21 06:45:44;;;;;;;4.18;3.13;;;10.50;69.30;;;;;;4991183;28;20102;-81
2022/10/21 06:48:12;;;;;;;3.80;2.92;;;10.50;69.30;;;;;;5024913;28;20587;-80
2022/10/21 06:50:38;;;;;;;3.80;2.90;;;10.40;69.30;;;;;;5007704;28;20045;-82
2022/10/21 06:53:05;;;;;;;4.25;3.63;;;10.40;69.20;;;;;;5024429;28;20558;-82
2022/10/21 06:55:31;;;;;;;4.35;3.42;;;10.50;69.30;;;;;;4991453;28;20034;-82
2022/10/21 06:57:58;;;;;;;4.80;2.83;;;10.50;70.00;;;;;;5026409;28;20041;-82
2022/10/21 07:00:24;;;;;;;4.95;3.63;;;10.50;69.40;;;;;;5028000;28;20638;-80
2022/10/21 07:02:50;;;;;;;3.60;3.20;;;10.40;69.40;;;;;;5045325;28;20124;-81
2022/10/21 07:05:16;;;;;;;4.55;3.30;;;10.40;69.40;;;;;;5030002;28;20102;-83
2022/10/21 07:07:42;;;;;;;4.93;3.20;;;10.40;69.30;;;;;;5011731;28;20045;-79
2022/10/21 07:10:08;;;;;;;4.18;3.10;;;10.40;69.30;;;;;;5030049;28;20040;-79
2022/10/21 07:12:34;;;;;;;3.78;3.28;;;10.50;69.50;;;;;;5028782;28;20033;-79
2022/10/21 07:15:00;;;;;;;4.78;3.30;;;10.40;69.50;;;;;;5027896;28;20037;-80
2022/10/21 07:17:29;;;;;;;3.33;2.92;;;10.50;69.50;;;;;;5011069;28;20049;-81
2022/10/21 07:19:55;;;;;;;3.70;3.33;;;10.50;69.60;;;;;;5011524;28;20044;-77
2022/10/21 07:22:21;;;;;;;5.47;4.03;;;10.40;69.50;;;;;;5030513;28;20022;-80
2022/10/21 07:24:47;;;;;;;4.07;3.50;;;10.40;69.60;;;;;;4995006;28;20033;-80
2022/10/21 07:27:13;;;;;;;4.75;3.75;;;10.50;69.60;;;;;;5027586;28;20072;-79
2022/10/21 07:29:39;;;;;;;4.35;3.60;;;10.50;69.60;;;;;;5028048;28;20040;-80
2022/10/21 07:32:05;;;;;;;4.90;3.50;;;10.50;69.50;;;;;;5011723;28;20068;-80
2022/10/21 07:34:31;;;;;;;5.72;3.88;;;10.50;69.50;;;;;;5028760;28;20033;-79
2022/10/21 07:36:57;;;;;;;4.32;3.47;;;10.50;69.60;;;;;;5036089;28;20132;-79
2022/10/21 07:39:25;;;;;;;3.92;3.60;;;10.50;69.50;;;;;;5027254;28;20969;-80
2022/10/21 07:41:54;;;;;;;4.07;3.63;;;10.50;69.60;;;;;;5022852;28;20516;-79
2022/10/21 07:44:22;;;;;;;4.85;3.50;;;10.50;69.60;;;;;;4995521;28;20587;-80
2022/10/21 07:46:49;;;;;;;6.38;4.03;;;10.50;69.60;;;;;;5026997;28;20045;-80
2022/10/21 07:49:16;;;;;;;8.80;3.85;;;10.50;69.50;;;;;;4995853;28;20452;-80
2022/10/21 07:51:44;;;;;;;5.60;4.00;;;10.50;69.40;;;;;;5028083;28;20036;-80
2022/10/21 08:07:34;;;;;;;;;;;;;;;;;;;;;
2022/10/21 08:36:45;;;;;;;5.57;4.20;;;10.50;69.00;;;;;;6050096;23;20069;-80
2022/10/21 08:40:13;;;;;;;5.20;4.18;;;10.50;69.30;;;;;;6030134;23;20026;-78
2022/10/21 08:48:24;;;;;;;5.80;4.20;;;10.60;69.30;;;;;;5851046;24;20076;-84
2022/10/21 08:51:26;;;;;;;6.45;4.60;;;10.60;69.40;;;;;;5861111;24;20408;-81
2022/10/21 08:54:00;;;;;;;4.65;4.10;;;10.70;70.50;;;;;;5847127;24;20485;-78
2022/10/21 08:56:35;;;;;;;5.10;4.20;;;10.70;71.10;;;;;;5872467;24;20157;-77
2022/10/21 08:59:01;;;;;;;5.00;4.33;;;10.80;71.80;;;;;;5872759;24;20104;-78
2022/10/21 09:02:11;;;;;;;5.35;4.05;;;10.90;71.70;;;;;;5873959;24;20236;-78
2022/10/21 09:05:10;;;;;;;5.65;3.95;;;10.90;71.40;;;;;;5846131;24;20375;-78
2022/10/21 09:08:30;;;;;;;4.30;3.60;;;11.00;71.30;;;;;;5823907;24;20074;-83
2022/10/21 09:11:34;;;;;;;6.05;4.32;;;11.10;71.40;;;;;;5800997;24;20018;-80
2022/10/21 09:14:59;;;;;;;;;;;;;;;;;;;;;
2022/10/21 09:18:34;;;;;;;5.70;4.07;;;11.30;71.80;;;;;;5845417;24;20025;-79
2022/10/21 09:22:14;;;;;;;;;;;;;;;;;;;;;
2022/10/21 09:26:16;;;;;;;8.43;4.30;;;11.40;71.60;;;;;;5962841;23;20491;-79
2022/10/21 09:38:45;;;;;;;;;;;;;;;;;;;;;
2022/10/21 09:42:02;;;;;;;;;;;;;;;;;;;;;
2022/10/21 09:45:18;;;;;;;4.88;4.22;;;11.60;69.60;;;;;;5935317;24;20107;-79
2022/10/21 09:48:33;;;;;;;;;;;;;;;;;;;;;
2022/10/21 09:51:47;;;;;;;;;;;;;;;;;;;;;
2022/10/21 09:58:57;;;;;;;;;;;;;;;;;;;;;
2022/10/21 10:03:12;;;;;;;6.75;4.57;;;11.70;68.80;;;;;;5902326;24;20256;-80
2022/10/21 10:30:10;;;;;;;;;;;;;;;;;;;;;
2022/10/21 10:33:44;;;;;;;5.50;4.28;;;11.80;67.50;;;;;;6245680;23;20612;-79
2022/10/21 10:37:07;;;;;;;6.07;3.85;;;11.80;67.40;;;;;;6168675;23;20028;-79
2022/10/21 10:39:38;;;;;;;6.03;4.63;;;11.90;67.40;;;;;;6134955;23;20064;-77
2022/10/21 10:42:06;;;;;;;5.43;4.68;;;11.90;67.30;;;;;;6136202;23;20020;-78
2022/10/21 10:44:40;;;;;;;6.13;4.65;;;11.90;67.30;;;;;;6203450;23;20036;-77
2022/10/21 10:47:16;;;;;;;5.40;4.40;;;11.90;67.30;;;;;;6246589;23;20333;-78
2022/10/21 10:49:43;;;;;;;6.40;3.90;;;11.90;68.20;;;;;;6195099;23;20008;-78
2022/10/21 10:52:09;;;;;;;4.63;3.85;;;12.00;68.90;;;;;;6166864;23;20371;-77
2022/10/21 10:54:39;;;;;;;4.38;3.97;;;12.10;68.60;;;;;;6191357;23;20016;-79
2022/10/21 10:57:25;;;;;;;5.65;4.13;;;12.10;68.20;;;;;;6215624;23;20079;-79
2022/10/21 11:00:12;;;;;;;7.60;3.40;;;12.10;68.10;;;;;;6190896;23;20067;-79
2022/10/21 11:03:02;;;;;;;8.55;3.03;;;12.20;72.10;;;;;;6216161;23;20249;-78
2022/10/21 11:05:35;;;;;;;5.45;3.42;;;12.30;70.90;;;;;;6216055;23;20451;-78
2022/10/21 11:08:11;;;;;;;5.75;3.72;;;12.40;70.30;;;;;;6191071;23;20062;-77
2022/10/21 11:10:43;;;;;;;3.63;3.10;;;12.40;69.60;;;;;;6287954;22;20069;-76
2022/10/21 11:13:23;;;;;;;4.90;3.38;;;12.40;69.00;;;;;;6288474;22;20549;-79
2022/10/21 11:16:04;;;;;;;3.83;3.40;;;12.40;68.70;;;;;;6258811;22;20433;-81
2022/10/21 11:18:42;;;;;;;5.55;3.60;;;12.40;68.40;;;;;;6334269;22;20072;-81
2022/10/21 11:21:27;;;;;;;3.85;3.42;;;12.40;68.20;;;;;;6341095;22;20045;-80
2022/10/21 11:24:10;;;;;;;5.00;3.38;;;12.40;68.20;;;;;;6286455;22;20034;-78
2022/10/21 11:26:44;;;;;;;3.80;3.40;;;12.40;68.10;;;;;;6335427;22;20023;-80
2022/10/21 11:29:32;;;;;;;8.35;4.70;;;12.40;67.90;;;;;;6333143;22;20363;-77
2022/10/21 11:32:48;;;;;;;4.63;3.83;;;12.40;68.00;;;;;;6333602;22;20019;-77
2022/10/21 11:35:50;;;;;;;4.88;3.63;;;12.40;67.70;;;;;;6333764;22;20012;-77
2022/10/21 11:38:42;;;;;;;6.88;4.35;;;12.40;67.70;;;;;;6294201;22;20018;-80
2022/10/21 11:41:33;;;;;;;4.82;3.53;;;12.40;67.80;;;;;;6310862;22;20015;-77
2022/10/21 11:44:05;;;;;;;7.00;4.00;;;12.40;67.70;;;;;;6333928;22;20096;-75
2022/10/21 11:46:43;;;;;;;5.10;4.20;;;12.40;67.50;;;;;;6335419;22;20006;-77
2022/10/21 11:49:31;;;;;;;8.00;4.03;;;12.40;67.60;;;;;;6335189;22;20334;-79
2022/10/21 11:52:49;;;;;;;8.30;4.00;;;12.40;67.70;;;;;;6295264;22;20090;-78
2022/10/21 11:55:33;;;;;;;5.38;4.53;;;12.40;67.90;;;;;;6306738;22;20022;-79
2022/10/21 11:58:17;;;;;;;;;;;12.40;68.10;;;;;;6333448;22;20034;-78
2022/10/21 12:00:57;;;;;;;7.40;4.50;;;12.50;68.20;;;;;;6267945;22;20082;-78
2022/10/21 12:03:43;;;;;;;9.00;4.90;;;12.50;68.30;;;;;;6334448;22;20015;-78
2022/10/21 12:06:51;;;;;;;6.43;5.47;;;12.40;68.40;;;;;;6332777;22;20018;-79
2022/10/21 12:09:25;;;;;;;6.00;5.03;;;12.40;68.60;;;;;;6238887;23;20471;-80
2022/10/21 12:12:01;;;;;;;6.10;4.60;;;12.40;68.70;;;;;;6198283;23;20298;-78
2022/10/21 12:14:31;;;;;;;5.88;4.50;;;12.40;68.80;;;;;;6208567;23;20063;-78
2022/10/21 12:16:59;;;;;;;6.65;4.65;;;12.40;69.00;;;;;;6208675;23;20496;-76
2022/10/21 12:19:26;;;;;;;7.00;3.78;;;12.40;69.20;;;;;;6134433;23;20013;-78
2022/10/21 12:21:52;;;;;;;6.95;4.72;;;12.40;69.20;;;;;;6206865;23;20026;-78
2022/10/21 12:24:32;;;;;;;6.28;4.15;;;12.40;69.10;;;;;;6208825;23;20408;-77
2022/10/21 12:27:05;;;;;;;5.82;4.03;;;12.50;69.10;;;;;;6208336;23;20090;-83
2022/10/21 12:30:05;;;;;;;8.05;3.88;;;12.40;69.00;;;;;;6219626;23;20585;-79
2022/10/21 12:32:50;;;;;;;6.13;3.90;;;12.50;69.00;;;;;;6213227;23;20235;-76
2022/10/21 12:35:26;;;;;;;4.28;3.50;;;12.50;69.00;;;;;;6238486;23;20031;-79
2022/10/21 12:37:51;;;;;;;7.28;3.58;;;12.40;68.90;;;;;;6213394;23;20027;-82
2022/10/21 12:40:27;;;;;;;5.97;4.00;;;12.50;69.00;;;;;;6268421;22;20018;-78
2022/10/21 12:43:05;;;;;;;4.80;3.53;;;12.50;69.00;;;;;;6332240;22;20038;-77
2022/10/21 12:45:36;;;;;;;5.80;3.95;;;12.50;69.00;;;;;;6306635;22;20019;-78
2022/10/21 12:48:27;;;;;;;5.63;3.90;;;12.40;68.90;;;;;;6334476;22;20019;-80
2022/10/21 12:51:03;;;;;;;4.75;3.78;;;12.50;68.80;;;;;;6318010;22;20019;-78
2022/10/21 12:53:32;;;;;;;;;;;12.50;68.80;;;;;;6334944;22;20018;-82
2022/10/21 12:56:00;;;;;;;4.95;3.65;;;12.50;68.80;;;;;;6334597;22;19921;-80
2022/10/21 12:58:57;;;;;;;6.03;3.55;;;12.50;68.80;;;;;;6334828;22;20451;-80
2022/10/21 13:01:38;;;;;;;4.43;3.45;;;12.50;69.00;;;;;;6309147;22;20026;-77
2022/10/21 13:04:24;;;;;;;4.50;3.55;;;12.50;69.00;;;;;;6334718;22;20022;-78
2022/10/21 13:06:53;;;;;;;4.55;3.60;;;12.50;69.00;;;;;;6306185;22;20022;-77
2022/10/21 13:09:49;;;;;;;4.30;3.45;;;12.50;69.00;;;;;;6306379;22;20022;-76
2022/10/21 13:12:24;;;;;;;4.97;3.25;;;12.50;69.00;;;;;;6332672;22;20019;-77
2022/10/21 13:14:56;;;;;;;5.03;3.53;;;12.50;69.00;;;;;;6333931;22;20019;-78
2022/10/21 13:17:22;;;;;;;6.13;3.30;;;12.50;69.00;;;;;;6332137;22;20241;-76
2022/10/21 13:19:55;;;;;;;3.50;3.20;;;12.50;69.00;;;;;;6333969;22;20007;-77
2022/10/21 13:22:41;;;;;;;7.53;3.38;;;12.50;69.00;;;;;;6334645;22;20010;-76
2022/10/21 13:25:30;;;;;;;7.38;3.45;;;12.50;69.00;;;;;;6305903;22;20029;-77
2022/10/21 13:28:12;;;;;;;3.65;2.90;;;12.40;68.90;;;;;;6331922;22;20554;-76
2022/10/21 13:30:56;;;;;;;4.65;3.35;;;12.50;69.00;;;;;;6359953;22;20045;-77
2022/10/21 13:33:25;;;;;;;5.88;3.00;;;12.50;69.50;;;;;;6337541;22;20084;-76
2022/10/21 13:35:52;;;;;;;3.95;2.97;;;12.50;70.00;;;;;;6364334;22;20018;-76
2022/10/21 13:38:36;;;;;;;7.07;2.72;;;12.50;69.80;;;;;;6364038;22;20047;-76
2022/10/21 13:41:22;;;;;;;5.25;2.90;;;12.50;69.40;;;;;;6366628;22;20018;-76
2022/10/21 13:44:19;;;;;;;3.90;3.22;;;12.50;68.10;;;;;;6366856;22;20010;-78
2022/10/21 13:46:44;;;;;;;5.88;3.72;;;12.30;67.00;;;;;;6354098;22;20006;-77
2022/10/21 13:49:29;;;;;;;4.82;3.60;;;12.30;66.80;;;;;;6367662;22;20006;-76
2022/10/21 13:51:55;;;;;;;6.65;3.53;;;12.20;66.60;;;;;;6364463;22;20361;-76
2022/10/21 13:54:21;;;;;;;9.18;3.90;;;12.20;68.00;;;;;;6365294;22;20018;-77
2022/10/21 13:56:47;;;;;;;7.63;4.00;;;12.20;70.00;;;;;;6366175;22;20478;-76
2022/10/21 13:59:28;;;;;;;7.38;3.83;;;12.20;69.30;;;;;;6365048;22;20098;-76
2022/10/21 14:01:56;;;;;;;8.68;4.18;;;12.10;68.40;;;;;;6363146;22;20063;-77
2022/10/21 14:04:26;;;;;;;8.95;3.92;;;12.10;67.60;;;;;;6337636;22;20010;-76
2022/10/21 14:06:59;;;;;;;6.22;3.90;;;12.10;67.50;;;;;;6364786;22;20042;-76
2022/10/21 14:09:30;;;;;;;5.03;3.40;;;12.00;67.30;;;;;;6365058;22;20029;-77
2022/10/21 14:12:00;;;;;;;4.22;3.67;;;12.00;67.20;;;;;;6364861;22;20022;-76
2022/10/21 14:14:28;;;;;;;5.82;3.65;;;11.90;67.20;;;;;;6364937;22;20014;-76
2022/10/21 14:17:04;;;;;;;6.00;3.53;;;11.90;67.30;;;;;;6364976;22;20042;-76
2022/10/21 14:19:36;;;;;;;4.10;3.45;;;11.90;67.30;;;;;;6365540;22;20339;-76
2022/10/21 14:22:06;;;;;;;4.53;3.42;;;11.90;67.30;;;;;;6363516;22;20372;-76
2022/10/21 14:24:45;;;;;;;8.30;3.85;;;11.80;67.30;;;;;;6337083;22;20015;-77
2022/10/21 14:27:14;;;;;;;5.57;3.47;;;11.80;67.40;;;;;;6363330;22;20029;-76
2022/10/21 14:29:43;;;;;;;5.05;3.45;;;11.80;67.40;;;;;;6333472;22;20490;-76
2022/10/21 14:32:19;;;;;;;5.05;3.58;;;11.70;67.40;;;;;;6331263;22;20029;-77
2022/10/21 14:35:09;;;;;;;4.70;3.55;;;11.70;67.30;;;;;;6316885;22;20007;-77
2022/10/21 14:37:51;;;;;;;5.68;3.38;;;11.70;67.00;;;;;;6312969;22;20686;-78
2022/10/21 14:40:32;;;;;;;6.47;3.80;;;11.60;66.70;;;;;;6306886;22;20015;-77
2022/10/21 14:43:17;;;;;;;6.07;3.03;;;11.60;66.60;;;;;;6316511;22;20457;-79
2022/10/21 14:45:51;;;;;;;6.15;3.28;;;11.50;66.70;;;;;;6306375;22;20019;-76
2022/10/21 14:48:36;;;;;;;4.93;3.33;;;11.50;66.60;;;;;;6272032;22;20014;-77
2022/10/21 14:51:10;;;;;;;6.32;3.55;;;11.50;66.70;;;;;;6331784;22;20014;-78
2022/10/21 14:53:47;;;;;;;4.60;3.38;;;11.50;66.80;;;;;;6333911;22;20027;-77
2022/10/21 14:56:42;;;;;;;7.93;3.22;;;11.50;66.90;;;;;;6333829;22;20102;-78
2022/10/21 14:59:29;;;;;;;5.30;3.05;;;11.50;66.90;;;;;;6328770;22;20071;-78
2022/10/21 15:01:57;;;;;;;6.07;3.22;;;11.50;66.80;;;;;;6335216;22;20002;-78
2022/10/21 15:04:55;;;;;;;9.43;3.25;;;11.50;66.80;;;;;;6336180;22;20003;-78
2022/10/21 15:07:27;;;;;;;9.70;5.18;;;11.40;66.80;;;;;;6335128;22;20038;-78